sensor_id;sensor_type;location;lat;lon;timestamp;P1;durP1;ratioP1;P2;durP2;ratioP2
4933;SDS011;2482;49.154;8.254;2024-03-08T00:02:15;26.80;;;15.20;;
4933;SDS011;2482;49.154;8.254;2024-03-08T00:04:51;23.23;;;14.40;;
4933;SDS011;2482;49.154;8.254;2024-03-08T00:07:18;24.20;;;15.10;;
4933;SDS011;2482;49.154;8.254;2024-03-08T00:09:51;23.17;;;13.77;;
4933;SDS011;2482;49.154;8.254;2024-03-08T00:12:21;22.70;;;14.20;;
4933;SDS011;2482;49.154;8.254;2024-03-08T00:14:49;24.40;;;15.80;;
4933;SDS011;2482;49.154;8.254;2024-03-08T00:17:23;22.97;;;13.63;;
4933;SDS011;2482;49.154;8.254;2024-03-08T00:20:01;26.73;;;15.20;;
4933;SDS011;2482;49.154;8.254;2024-03-08T00:22:47;23.93;;;14.47;;
4933;SDS011;2482;49.154;8.254;2024-03-08T00:25:18;25.90;;;14.93;;
4933;SDS011;2482;49.154;8.254;2024-03-08T00:27:45;20.60;;;13.10;;
4933;SDS011;2482;49.154;8.254;2024-03-08T00:30:17;24.73;;;14.53;;
4933;SDS011;2482;49.154;8.254;2024-03-08T00:32:53;22.57;;;14.50;;
4933;SDS011;2482;49.154;8.254;2024-03-08T00:38:29;27.23;;;15.70;;
4933;SDS011;2482;49.154;8.254;2024-03-08T00:41:12;23.70;;;14.70;;
4933;SDS011;2482;49.154;8.254;2024-03-08T00:44:08;22.30;;;13.47;;
4933;SDS011;2482;49.154;8.254;2024-03-08T00:46:43;23.37;;;14.73;;
4933;SDS011;2482;49.154;8.254;2024-03-08T00:51:57;21.73;;;13.57;;
4933;SDS011;2482;49.154;8.254;2024-03-08T00:54:31;23.73;;;14.43;;
4933;SDS011;2482;49.154;8.254;2024-03-08T00:57:05;28.90;;;14.47;;
4933;SDS011;2482;49.154;8.254;2024-03-08T00:59:40;23.80;;;14.67;;
4933;SDS011;2482;49.154;8.254;2024-03-08T01:02:09;20.73;;;13.80;;
4933;SDS011;2482;49.154;8.254;2024-03-08T01:04:38;23.17;;;12.70;;
4933;SDS011;2482;49.154;8.254;2024-03-08T01:07:11;22.60;;;13.90;;
4933;SDS011;2482;49.154;8.254;2024-03-08T01:09:38;22.27;;;13.90;;
4933;SDS011;2482;49.154;8.254;2024-03-08T01:12:06;22.57;;;13.23;;
4933;SDS011;2482;49.154;8.254;2024-03-08T01:14:42;20.87;;;13.00;;
4933;SDS011;2482;49.154;8.254;2024-03-08T01:17:14;26.43;;;13.60;;
4933;SDS011;2482;49.154;8.254;2024-03-08T01:20:00;23.90;;;14.60;;
4933;SDS011;2482;49.154;8.254;2024-03-08T01:22:31;22.03;;;13.63;;
4933;SDS011;2482;49.154;8.254;2024-03-08T01:25:09;23.07;;;14.07;;
4933;SDS011;2482;49.154;8.254;2024-03-08T01:27:50;24.40;;;13.60;;
4933;SDS011;2482;49.154;8.254;2024-03-08T01:30:21;27.03;;;14.50;;
4933;SDS011;2482;49.154;8.254;2024-03-08T01:32:55;22.53;;;13.93;;
4933;SDS011;2482;49.154;8.254;2024-03-08T01:35:26;25.77;;;14.30;;
4933;SDS011;2482;49.154;8.254;2024-03-08T01:38:03;24.20;;;14.30;;
4933;SDS011;2482;49.154;8.254;2024-03-08T01:40:35;22.43;;;12.50;;
4933;SDS011;2482;49.154;8.254;2024-03-08T01:43:17;23.23;;;13.60;;
4933;SDS011;2482;49.154;8.254;2024-03-08T01:46:01;24.90;;;14.03;;
4933;SDS011;2482;49.154;8.254;2024-03-08T01:48:36;19.90;;;13.37;;
4933;SDS011;2482;49.154;8.254;2024-03-08T01:51:12;24.10;;;14.47;;
4933;SDS011;2482;49.154;8.254;2024-03-08T01:53:43;22.43;;;13.17;;
4933;SDS011;2482;49.154;8.254;2024-03-08T01:56:17;23.13;;;13.53;;
4933;SDS011;2482;49.154;8.254;2024-03-08T01:58:57;26.63;;;14.73;;
4933;SDS011;2482;49.154;8.254;2024-03-08T02:01:37;23.37;;;15.00;;
4933;SDS011;2482;49.154;8.254;2024-03-08T02:04:15;23.03;;;14.40;;
4933;SDS011;2482;49.154;8.254;2024-03-08T02:06:48;24.50;;;13.30;;
4933;SDS011;2482;49.154;8.254;2024-03-08T02:09:19;21.50;;;14.20;;
4933;SDS011;2482;49.154;8.254;2024-03-08T02:11:50;22.13;;;13.40;;
4933;SDS011;2482;49.154;8.254;2024-03-08T02:14:28;27.23;;;13.17;;
4933;SDS011;2482;49.154;8.254;2024-03-08T02:17:10;23.63;;;14.90;;
4933;SDS011;2482;49.154;8.254;2024-03-08T02:19:43;26.33;;;14.80;;
4933;SDS011;2482;49.154;8.254;2024-03-08T02:22:16;23.17;;;14.67;;
4933;SDS011;2482;49.154;8.254;2024-03-08T02:25:00;24.53;;;13.30;;
4933;SDS011;2482;49.154;8.254;2024-03-08T02:27:37;26.43;;;13.30;;
4933;SDS011;2482;49.154;8.254;2024-03-08T02:32:52;24.33;;;13.60;;
4933;SDS011;2482;49.154;8.254;2024-03-08T02:35:23;23.63;;;13.70;;
4933;SDS011;2482;49.154;8.254;2024-03-08T02:38:00;24.07;;;13.57;;
4933;SDS011;2482;49.154;8.254;2024-03-08T02:40:36;23.80;;;14.30;;
4933;SDS011;2482;49.154;8.254;2024-03-08T02:43:07;34.50;;;15.57;;
4933;SDS011;2482;49.154;8.254;2024-03-08T02:45:41;24.67;;;14.10;;
4933;SDS011;2482;49.154;8.254;2024-03-08T02:48:14;27.17;;;13.80;;
4933;SDS011;2482;49.154;8.254;2024-03-08T02:50:45;25.33;;;14.83;;
4933;SDS011;2482;49.154;8.254;2024-03-08T02:53:27;22.83;;;14.70;;
4933;SDS011;2482;49.154;8.254;2024-03-08T02:56:02;28.87;;;15.37;;
4933;SDS011;2482;49.154;8.254;2024-03-08T02:58:42;26.40;;;13.83;;
4933;SDS011;2482;49.154;8.254;2024-03-08T03:01:15;26.10;;;15.20;;
4933;SDS011;2482;49.154;8.254;2024-03-08T03:03:48;27.07;;;14.23;;
4933;SDS011;2482;49.154;8.254;2024-03-08T03:06:19;25.67;;;14.80;;
4933;SDS011;2482;49.154;8.254;2024-03-08T03:08:55;27.90;;;15.63;;
4933;SDS011;2482;49.154;8.254;2024-03-08T03:11:33;22.83;;;14.10;;
4933;SDS011;2482;49.154;8.254;2024-03-08T03:14:19;23.70;;;14.03;;
4933;SDS011;2482;49.154;8.254;2024-03-08T03:16:51;28.27;;;14.67;;
4933;SDS011;2482;49.154;8.254;2024-03-08T03:19:26;23.33;;;15.20;;
4933;SDS011;2482;49.154;8.254;2024-03-08T03:21:55;28.70;;;14.27;;
4933;SDS011;2482;49.154;8.254;2024-03-08T03:24:30;27.10;;;15.03;;
4933;SDS011;2482;49.154;8.254;2024-03-08T03:27:00;24.60;;;15.10;;
4933;SDS011;2482;49.154;8.254;2024-03-08T03:29:41;24.73;;;14.67;;
4933;SDS011;2482;49.154;8.254;2024-03-08T03:32:22;27.17;;;15.23;;
4933;SDS011;2482;49.154;8.254;2024-03-08T03:35:14;26.50;;;14.50;;
4933;SDS011;2482;49.154;8.254;2024-03-08T03:37:56;25.93;;;14.83;;
4933;SDS011;2482;49.154;8.254;2024-03-08T03:40:38;21.43;;;13.43;;
4933;SDS011;2482;49.154;8.254;2024-03-08T03:43:11;25.17;;;14.80;;
4933;SDS011;2482;49.154;8.254;2024-03-08T03:45:42;27.23;;;14.37;;
4933;SDS011;2482;49.154;8.254;2024-03-08T03:48:13;25.60;;;15.33;;
4933;SDS011;2482;49.154;8.254;2024-03-08T03:50:44;21.90;;;14.00;;
4933;SDS011;2482;49.154;8.254;2024-03-08T03:53:17;26.03;;;14.80;;
4933;SDS011;2482;49.154;8.254;2024-03-08T03:58:41;22.70;;;14.47;;
4933;SDS011;2482;49.154;8.254;2024-03-08T04:01:20;30.03;;;14.43;;
4933;SDS011;2482;49.154;8.254;2024-03-08T04:03:58;20.90;;;12.77;;
4933;SDS011;2482;49.154;8.254;2024-03-08T04:06:34;21.10;;;13.07;;
4933;SDS011;2482;49.154;8.254;2024-03-08T04:09:12;24.97;;;13.93;;
4933;SDS011;2482;49.154;8.254;2024-03-08T04:12:01;27.03;;;15.00;;
4933;SDS011;2482;49.154;8.254;2024-03-08T04:17:26;25.57;;;15.70;;
4933;SDS011;2482;49.154;8.254;2024-03-08T04:20:00;27.80;;;15.63;;
4933;SDS011;2482;49.154;8.254;2024-03-08T04:22:35;28.33;;;15.60;;
4933;SDS011;2482;49.154;8.254;2024-03-08T04:25:17;27.90;;;15.73;;
4933;SDS011;2482;49.154;8.254;2024-03-08T04:27:55;25.27;;;15.53;;
4933;SDS011;2482;49.154;8.254;2024-03-08T04:30:31;30.30;;;16.80;;
4933;SDS011;2482;49.154;8.254;2024-03-08T04:33:04;25.77;;;14.97;;
4933;SDS011;2482;49.154;8.254;2024-03-08T04:35:39;29.50;;;16.37;;
4933;SDS011;2482;49.154;8.254;2024-03-08T04:38:15;27.93;;;14.77;;
4933;SDS011;2482;49.154;8.254;2024-03-08T04:40:49;24.53;;;14.80;;
4933;SDS011;2482;49.154;8.254;2024-03-08T04:43:25;29.13;;;15.20;;
4933;SDS011;2482;49.154;8.254;2024-03-08T04:46:03;30.47;;;15.43;;
4933;SDS011;2482;49.154;8.254;2024-03-08T04:48:44;26.37;;;16.00;;
4933;SDS011;2482;49.154;8.254;2024-03-08T04:51:23;28.37;;;17.67;;
4933;SDS011;2482;49.154;8.254;2024-03-08T04:53:56;37.53;;;17.93;;
4933;SDS011;2482;49.154;8.254;2024-03-08T04:56:32;28.90;;;16.43;;
4933;SDS011;2482;49.154;8.254;2024-03-08T04:59:07;24.73;;;16.17;;
4933;SDS011;2482;49.154;8.254;2024-03-08T05:01:35;29.43;;;16.70;;
4933;SDS011;2482;49.154;8.254;2024-03-08T05:04:09;28.07;;;15.40;;
4933;SDS011;2482;49.154;8.254;2024-03-08T05:06:41;29.57;;;16.00;;
4933;SDS011;2482;49.154;8.254;2024-03-08T05:09:15;29.67;;;17.07;;
4933;SDS011;2482;49.154;8.254;2024-03-08T05:11:52;27.90;;;16.87;;
4933;SDS011;2482;49.154;8.254;2024-03-08T05:17:21;26.07;;;15.17;;
4933;SDS011;2482;49.154;8.254;2024-03-08T05:19:55;28.40;;;15.90;;
4933;SDS011;2482;49.154;8.254;2024-03-08T05:22:23;24.40;;;15.03;;
4933;SDS011;2482;49.154;8.254;2024-03-08T05:25:00;25.20;;;15.00;;
4933;SDS011;2482;49.154;8.254;2024-03-08T05:27:41;25.53;;;15.47;;
4933;SDS011;2482;49.154;8.254;2024-03-08T05:30:22;24.63;;;15.23;;
4933;SDS011;2482;49.154;8.254;2024-03-08T05:32:55;24.50;;;14.40;;
4933;SDS011;2482;49.154;8.254;2024-03-08T05:35:24;25.33;;;14.20;;
4933;SDS011;2482;49.154;8.254;2024-03-08T05:38:05;27.17;;;14.50;;
4933;SDS011;2482;49.154;8.254;2024-03-08T05:40:42;29.50;;;15.80;;
4933;SDS011;2482;49.154;8.254;2024-03-08T05:43:16;28.00;;;15.83;;
4933;SDS011;2482;49.154;8.254;2024-03-08T05:45:49;24.83;;;14.87;;
4933;SDS011;2482;49.154;8.254;2024-03-08T05:48:17;28.47;;;15.57;;
4933;SDS011;2482;49.154;8.254;2024-03-08T05:50:49;29.00;;;15.70;;
4933;SDS011;2482;49.154;8.254;2024-03-08T05:53:30;24.83;;;14.50;;
4933;SDS011;2482;49.154;8.254;2024-03-08T05:56:03;34.23;;;16.43;;
4933;SDS011;2482;49.154;8.254;2024-03-08T05:58:36;26.23;;;14.73;;
4933;SDS011;2482;49.154;8.254;2024-03-08T06:01:11;26.50;;;14.93;;
4933;SDS011;2482;49.154;8.254;2024-03-08T06:03:45;23.37;;;13.93;;
4933;SDS011;2482;49.154;8.254;2024-03-08T06:06:18;27.00;;;15.20;;
4933;SDS011;2482;49.154;8.254;2024-03-08T06:08:49;25.73;;;14.43;;
4933;SDS011;2482;49.154;8.254;2024-03-08T06:11:35;25.20;;;14.60;;
4933;SDS011;2482;49.154;8.254;2024-03-08T06:14:23;26.07;;;14.20;;
4933;SDS011;2482;49.154;8.254;2024-03-08T06:16:54;22.90;;;13.77;;
4933;SDS011;2482;49.154;8.254;2024-03-08T06:19:25;25.10;;;14.37;;
4933;SDS011;2482;49.154;8.254;2024-03-08T06:21:55;24.10;;;14.77;;
4933;SDS011;2482;49.154;8.254;2024-03-08T06:24:26;30.23;;;15.03;;
4933;SDS011;2482;49.154;8.254;2024-03-08T06:26:59;26.17;;;15.03;;
4933;SDS011;2482;49.154;8.254;2024-03-08T06:29:35;28.03;;;14.90;;
4933;SDS011;2482;49.154;8.254;2024-03-08T06:34:49;28.97;;;17.20;;
4933;SDS011;2482;49.154;8.254;2024-03-08T06:37:18;24.93;;;15.20;;
4933;SDS011;2482;49.154;8.254;2024-03-08T06:39:49;29.37;;;15.07;;
4933;SDS011;2482;49.154;8.254;2024-03-08T06:42:17;27.03;;;15.20;;
4933;SDS011;2482;49.154;8.254;2024-03-08T06:44:53;26.20;;;14.23;;
4933;SDS011;2482;49.154;8.254;2024-03-08T06:47:27;27.27;;;15.33;;
4933;SDS011;2482;49.154;8.254;2024-03-08T06:49:55;27.10;;;14.60;;
4933;SDS011;2482;49.154;8.254;2024-03-08T06:52:23;26.57;;;13.90;;
4933;SDS011;2482;49.154;8.254;2024-03-08T06:55:00;25.73;;;15.77;;
4933;SDS011;2482;49.154;8.254;2024-03-08T06:57:35;27.87;;;15.10;;
4933;SDS011;2482;49.154;8.254;2024-03-08T07:00:14;23.20;;;14.47;;
4933;SDS011;2482;49.154;8.254;2024-03-08T07:02:51;25.47;;;14.90;;
4933;SDS011;2482;49.154;8.254;2024-03-08T07:05:28;24.73;;;13.73;;
4933;SDS011;2482;49.154;8.254;2024-03-08T07:08:00;23.10;;;13.50;;
4933;SDS011;2482;49.154;8.254;2024-03-08T07:10:41;20.67;;;12.30;;
4933;SDS011;2482;49.154;8.254;2024-03-08T07:13:09;26.90;;;14.00;;
4933;SDS011;2482;49.154;8.254;2024-03-08T07:15:43;28.00;;;15.30;;
4933;SDS011;2482;49.154;8.254;2024-03-08T07:18:17;24.27;;;14.87;;
4933;SDS011;2482;49.154;8.254;2024-03-08T07:20:50;20.27;;;13.47;;
4933;SDS011;2482;49.154;8.254;2024-03-08T07:23:31;25.17;;;14.80;;
4933;SDS011;2482;49.154;8.254;2024-03-08T07:26:23;25.33;;;14.40;;
4933;SDS011;2482;49.154;8.254;2024-03-08T07:28:56;20.77;;;13.33;;
4933;SDS011;2482;49.154;8.254;2024-03-08T07:31:26;22.80;;;14.53;;
4933;SDS011;2482;49.154;8.254;2024-03-08T07:34:11;24.70;;;14.87;;
4933;SDS011;2482;49.154;8.254;2024-03-08T07:36:48;23.63;;;14.10;;
4933;SDS011;2482;49.154;8.254;2024-03-08T07:39:20;22.80;;;14.63;;
4933;SDS011;2482;49.154;8.254;2024-03-08T07:41:56;28.43;;;14.73;;
4933;SDS011;2482;49.154;8.254;2024-03-08T07:44:27;21.67;;;13.47;;
4933;SDS011;2482;49.154;8.254;2024-03-08T07:47:02;28.23;;;15.57;;
4933;SDS011;2482;49.154;8.254;2024-03-08T07:49:33;24.27;;;14.13;;
4933;SDS011;2482;49.154;8.254;2024-03-08T07:52:07;24.87;;;14.37;;
4933;SDS011;2482;49.154;8.254;2024-03-08T07:54:42;22.60;;;14.60;;
4933;SDS011;2482;49.154;8.254;2024-03-08T07:57:20;22.43;;;14.57;;
4933;SDS011;2482;49.154;8.254;2024-03-08T07:59:50;24.67;;;13.97;;
4933;SDS011;2482;49.154;8.254;2024-03-08T08:02:28;22.37;;;13.47;;
4933;SDS011;2482;49.154;8.254;2024-03-08T08:05:01;22.47;;;13.87;;
4933;SDS011;2482;49.154;8.254;2024-03-08T08:07:38;21.80;;;13.37;;
4933;SDS011;2482;49.154;8.254;2024-03-08T08:10:10;23.77;;;13.87;;
4933;SDS011;2482;49.154;8.254;2024-03-08T08:12:55;23.10;;;15.20;;
4933;SDS011;2482;49.154;8.254;2024-03-08T08:15:43;30.90;;;15.00;;
4933;SDS011;2482;49.154;8.254;2024-03-08T08:18:12;24.30;;;15.97;;
4933;SDS011;2482;49.154;8.254;2024-03-08T08:20:45;23.40;;;15.13;;
4933;SDS011;2482;49.154;8.254;2024-03-08T08:23:17;22.77;;;13.23;;
4933;SDS011;2482;49.154;8.254;2024-03-08T08:25:50;22.57;;;14.50;;
4933;SDS011;2482;49.154;8.254;2024-03-08T08:28:24;22.00;;;15.20;;
4933;SDS011;2482;49.154;8.254;2024-03-08T08:31:00;20.73;;;13.23;;
4933;SDS011;2482;49.154;8.254;2024-03-08T08:36:17;22.00;;;13.17;;
4933;SDS011;2482;49.154;8.254;2024-03-08T08:39:00;22.17;;;14.00;;
4933;SDS011;2482;49.154;8.254;2024-03-08T08:41:37;24.57;;;14.80;;
4933;SDS011;2482;49.154;8.254;2024-03-08T08:44:10;24.97;;;16.20;;
4933;SDS011;2482;49.154;8.254;2024-03-08T08:46:49;23.60;;;13.47;;
4933;SDS011;2482;49.154;8.254;2024-03-08T08:49:40;21.97;;;14.97;;
4933;SDS011;2482;49.154;8.254;2024-03-08T08:52:14;24.53;;;14.17;;
4933;SDS011;2482;49.154;8.254;2024-03-08T08:54:51;23.00;;;14.10;;
4933;SDS011;2482;49.154;8.254;2024-03-08T08:57:31;22.33;;;14.07;;
4933;SDS011;2482;49.154;8.254;2024-03-08T09:00:01;23.73;;;14.40;;
4933;SDS011;2482;49.154;8.254;2024-03-08T09:02:43;22.63;;;13.40;;
4933;SDS011;2482;49.154;8.254;2024-03-08T09:05:18;21.43;;;14.17;;
4933;SDS011;2482;49.154;8.254;2024-03-08T09:07:51;20.10;;;12.77;;
4933;SDS011;2482;49.154;8.254;2024-03-08T09:10:40;27.00;;;13.63;;
4933;SDS011;2482;49.154;8.254;2024-03-08T09:13:18;25.40;;;14.00;;
4933;SDS011;2482;49.154;8.254;2024-03-08T09:15:59;21.30;;;13.40;;
4933;SDS011;2482;49.154;8.254;2024-03-08T09:18:30;21.93;;;13.43;;
4933;SDS011;2482;49.154;8.254;2024-03-08T09:21:11;24.17;;;14.80;;
4933;SDS011;2482;49.154;8.254;2024-03-08T09:23:53;22.63;;;13.57;;
4933;SDS011;2482;49.154;8.254;2024-03-08T09:26:29;22.57;;;14.67;;
4933;SDS011;2482;49.154;8.254;2024-03-08T09:29:10;22.30;;;13.93;;
4933;SDS011;2482;49.154;8.254;2024-03-08T09:31:46;21.27;;;13.23;;
4933;SDS011;2482;49.154;8.254;2024-03-08T09:34:54;20.40;;;13.07;;
4933;SDS011;2482;49.154;8.254;2024-03-08T09:37:29;23.30;;;14.73;;
4933;SDS011;2482;49.154;8.254;2024-03-08T09:40:02;21.43;;;13.57;;
4933;SDS011;2482;49.154;8.254;2024-03-08T09:42:37;23.30;;;13.90;;
4933;SDS011;2482;49.154;8.254;2024-03-08T09:45:11;18.47;;;12.60;;
4933;SDS011;2482;49.154;8.254;2024-03-08T09:50:29;22.70;;;14.30;;
4933;SDS011;2482;49.154;8.254;2024-03-08T09:53:07;20.63;;;13.37;;
4933;SDS011;2482;49.154;8.254;2024-03-08T09:55:49;22.30;;;14.50;;
4933;SDS011;2482;49.154;8.254;2024-03-08T09:58:31;20.47;;;12.40;;
4933;SDS011;2482;49.154;8.254;2024-03-08T10:01:06;27.70;;;13.00;;
4933;SDS011;2482;49.154;8.254;2024-03-08T10:03:40;19.10;;;12.23;;
4933;SDS011;2482;49.154;8.254;2024-03-08T10:06:12;20.30;;;13.77;;
4933;SDS011;2482;49.154;8.254;2024-03-08T10:08:46;22.30;;;14.23;;
4933;SDS011;2482;49.154;8.254;2024-03-08T10:11:29;20.33;;;12.97;;
4933;SDS011;2482;49.154;8.254;2024-03-08T10:14:03;25.83;;;13.80;;
4933;SDS011;2482;49.154;8.254;2024-03-08T10:16:48;22.90;;;13.20;;
4933;SDS011;2482;49.154;8.254;2024-03-08T10:19:23;20.73;;;13.53;;
4933;SDS011;2482;49.154;8.254;2024-03-08T10:21:54;20.87;;;13.60;;
4933;SDS011;2482;49.154;8.254;2024-03-08T10:24:31;21.10;;;13.07;;
4933;SDS011;2482;49.154;8.254;2024-03-08T10:27:09;21.10;;;12.97;;
4933;SDS011;2482;49.154;8.254;2024-03-08T10:29:52;19.60;;;12.63;;
4933;SDS011;2482;49.154;8.254;2024-03-08T10:32:41;21.90;;;15.03;;
4933;SDS011;2482;49.154;8.254;2024-03-08T10:35:11;23.50;;;14.80;;
4933;SDS011;2482;49.154;8.254;2024-03-08T10:37:49;22.00;;;14.30;;
4933;SDS011;2482;49.154;8.254;2024-03-08T10:40:30;20.77;;;14.10;;
4933;SDS011;2482;49.154;8.254;2024-03-08T10:43:10;19.80;;;13.30;;
4933;SDS011;2482;49.154;8.254;2024-03-08T10:49:43;23.90;;;12.80;;
4933;SDS011;2482;49.154;8.254;2024-03-08T10:52:32;22.43;;;13.80;;
4933;SDS011;2482;49.154;8.254;2024-03-08T10:55:09;19.00;;;14.70;;
4933;SDS011;2482;49.154;8.254;2024-03-08T10:58:01;24.20;;;14.50;;
4933;SDS011;2482;49.154;8.254;2024-03-08T11:00:37;22.67;;;13.57;;
4933;SDS011;2482;49.154;8.254;2024-03-08T11:03:49;23.10;;;13.97;;
4933;SDS011;2482;49.154;8.254;2024-03-08T11:09:27;21.43;;;13.43;;
4933;SDS011;2482;49.154;8.254;2024-03-08T11:12:27;22.30;;;13.80;;
4933;SDS011;2482;49.154;8.254;2024-03-08T11:15:11;24.00;;;14.90;;
4933;SDS011;2482;49.154;8.254;2024-03-08T11:17:49;21.13;;;14.03;;
4933;SDS011;2482;49.154;8.254;2024-03-08T11:20:19;19.93;;;12.80;;
4933;SDS011;2482;49.154;8.254;2024-03-08T11:23:04;20.97;;;13.50;;
4933;SDS011;2482;49.154;8.254;2024-03-08T11:25:47;17.03;;;12.47;;
4933;SDS011;2482;49.154;8.254;2024-03-08T11:28:20;21.23;;;13.33;;
4933;SDS011;2482;49.154;8.254;2024-03-08T11:33:29;19.80;;;12.47;;
4933;SDS011;2482;49.154;8.254;2024-03-08T11:36:24;21.40;;;13.10;;
4933;SDS011;2482;49.154;8.254;2024-03-08T11:39:07;18.43;;;12.90;;
4933;SDS011;2482;49.154;8.254;2024-03-08T11:41:42;20.40;;;12.80;;
4933;SDS011;2482;49.154;8.254;2024-03-08T11:44:15;21.90;;;13.90;;
4933;SDS011;2482;49.154;8.254;2024-03-08T11:46:51;20.37;;;12.70;;
4933;SDS011;2482;49.154;8.254;2024-03-08T11:49:28;20.20;;;13.10;;
4933;SDS011;2482;49.154;8.254;2024-03-08T11:51:58;19.83;;;12.80;;
4933;SDS011;2482;49.154;8.254;2024-03-08T11:54:37;21.30;;;13.30;;
4933;SDS011;2482;49.154;8.254;2024-03-08T11:57:29;20.93;;;12.87;;
4933;SDS011;2482;49.154;8.254;2024-03-08T12:00:14;21.03;;;13.70;;
4933;SDS011;2482;49.154;8.254;2024-03-08T12:03:11;20.93;;;12.30;;
4933;SDS011;2482;49.154;8.254;2024-03-08T12:08:31;17.20;;;11.60;;
4933;SDS011;2482;49.154;8.254;2024-03-08T12:11:05;21.80;;;13.40;;
4933;SDS011;2482;49.154;8.254;2024-03-08T12:13:41;18.60;;;12.17;;
4933;SDS011;2482;49.154;8.254;2024-03-08T12:16:09;19.23;;;12.93;;
4933;SDS011;2482;49.154;8.254;2024-03-08T12:18:40;16.70;;;11.43;;
4933;SDS011;2482;49.154;8.254;2024-03-08T12:21:15;18.77;;;12.83;;
4933;SDS011;2482;49.154;8.254;2024-03-08T12:24:05;18.83;;;12.50;;
4933;SDS011;2482;49.154;8.254;2024-03-08T12:26:47;18.93;;;12.60;;
4933;SDS011;2482;49.154;8.254;2024-03-08T12:29:19;20.10;;;12.30;;
4933;SDS011;2482;49.154;8.254;2024-03-08T12:32:00;19.70;;;12.50;;
4933;SDS011;2482;49.154;8.254;2024-03-08T12:34:38;19.77;;;13.27;;
4933;SDS011;2482;49.154;8.254;2024-03-08T12:37:11;18.27;;;12.53;;
4933;SDS011;2482;49.154;8.254;2024-03-08T12:39:49;20.50;;;11.60;;
4933;SDS011;2482;49.154;8.254;2024-03-08T12:42:29;24.00;;;14.67;;
4933;SDS011;2482;49.154;8.254;2024-03-08T12:45:02;20.80;;;13.13;;
4933;SDS011;2482;49.154;8.254;2024-03-08T12:47:31;21.73;;;13.97;;
4933;SDS011;2482;49.154;8.254;2024-03-08T12:50:12;20.87;;;14.87;;
4933;SDS011;2482;49.154;8.254;2024-03-08T12:52:46;21.97;;;13.83;;
4933;SDS011;2482;49.154;8.254;2024-03-08T12:55:19;18.83;;;12.90;;
4933;SDS011;2482;49.154;8.254;2024-03-08T12:57:55;20.90;;;12.97;;
4933;SDS011;2482;49.154;8.254;2024-03-08T13:00:25;21.67;;;12.83;;
4933;SDS011;2482;49.154;8.254;2024-03-08T13:03:03;21.23;;;13.63;;
4933;SDS011;2482;49.154;8.254;2024-03-08T13:05:39;18.40;;;13.27;;
4933;SDS011;2482;49.154;8.254;2024-03-08T13:08:13;21.50;;;13.23;;
4933;SDS011;2482;49.154;8.254;2024-03-08T13:10:50;23.43;;;13.37;;
4933;SDS011;2482;49.154;8.254;2024-03-08T13:13:24;20.27;;;13.50;;
4933;SDS011;2482;49.154;8.254;2024-03-08T13:15:54;19.40;;;13.37;;
4933;SDS011;2482;49.154;8.254;2024-03-08T13:18:27;21.07;;;13.70;;
4933;SDS011;2482;49.154;8.254;2024-03-08T13:21:04;24.67;;;14.90;;
4933;SDS011;2482;49.154;8.254;2024-03-08T13:26:16;21.43;;;13.60;;
4933;SDS011;2482;49.154;8.254;2024-03-08T13:28:59;18.83;;;12.70;;
4933;SDS011;2482;49.154;8.254;2024-03-08T13:31:31;22.23;;;13.13;;
4933;SDS011;2482;49.154;8.254;2024-03-08T13:34:03;19.07;;;12.23;;
4933;SDS011;2482;49.154;8.254;2024-03-08T13:36:32;16.43;;;11.47;;
4933;SDS011;2482;49.154;8.254;2024-03-08T13:39:16;18.93;;;12.43;;
4933;SDS011;2482;49.154;8.254;2024-03-08T13:41:56;18.07;;;11.77;;
4933;SDS011;2482;49.154;8.254;2024-03-08T13:44:32;21.07;;;13.40;;
4933;SDS011;2482;49.154;8.254;2024-03-08T13:47:04;20.37;;;11.20;;
4933;SDS011;2482;49.154;8.254;2024-03-08T13:49:44;20.00;;;12.60;;
4933;SDS011;2482;49.154;8.254;2024-03-08T13:52:21;21.67;;;12.30;;
4933;SDS011;2482;49.154;8.254;2024-03-08T13:54:55;17.57;;;11.47;;
4933;SDS011;2482;49.154;8.254;2024-03-08T13:57:38;17.50;;;11.70;;
4933;SDS011;2482;49.154;8.254;2024-03-08T14:00:12;20.43;;;13.43;;
4933;SDS011;2482;49.154;8.254;2024-03-08T14:02:56;20.53;;;12.83;;
4933;SDS011;2482;49.154;8.254;2024-03-08T14:05:27;18.40;;;12.23;;
4933;SDS011;2482;49.154;8.254;2024-03-08T14:07:59;22.17;;;13.50;;
4933;SDS011;2482;49.154;8.254;2024-03-08T14:10:37;22.37;;;13.70;;
4933;SDS011;2482;49.154;8.254;2024-03-08T14:13:13;17.50;;;11.90;;
4933;SDS011;2482;49.154;8.254;2024-03-08T14:18:25;18.87;;;11.33;;
4933;SDS011;2482;49.154;8.254;2024-03-08T14:20:58;21.50;;;13.60;;
4933;SDS011;2482;49.154;8.254;2024-03-08T14:23:26;23.20;;;14.45;;
4933;SDS011;2482;49.154;8.254;2024-03-08T14:26:01;22.57;;;13.80;;
4933;SDS011;2482;49.154;8.254;2024-03-08T14:28:37;23.00;;;13.77;;
4933;SDS011;2482;49.154;8.254;2024-03-08T14:31:16;20.77;;;13.67;;
4933;SDS011;2482;49.154;8.254;2024-03-08T14:33:48;21.40;;;13.90;;
4933;SDS011;2482;49.154;8.254;2024-03-08T14:36:18;21.77;;;13.47;;
4933;SDS011;2482;49.154;8.254;2024-03-08T14:38:50;23.03;;;13.10;;
4933;SDS011;2482;49.154;8.254;2024-03-08T14:41:22;20.67;;;13.40;;
4933;SDS011;2482;49.154;8.254;2024-03-08T14:43:59;22.97;;;13.70;;
4933;SDS011;2482;49.154;8.254;2024-03-08T14:46:33;20.30;;;12.70;;
4933;SDS011;2482;49.154;8.254;2024-03-08T14:49:04;21.63;;;12.77;;
4933;SDS011;2482;49.154;8.254;2024-03-08T14:51:40;21.13;;;13.07;;
4933;SDS011;2482;49.154;8.254;2024-03-08T14:54:14;21.40;;;13.70;;
4933;SDS011;2482;49.154;8.254;2024-03-08T14:56:44;20.60;;;13.10;;
4933;SDS011;2482;49.154;8.254;2024-03-08T14:59:20;20.20;;;13.30;;
4933;SDS011;2482;49.154;8.254;2024-03-08T15:01:48;22.87;;;14.37;;
4933;SDS011;2482;49.154;8.254;2024-03-08T15:04:21;21.40;;;12.83;;
4933;SDS011;2482;49.154;8.254;2024-03-08T15:06:50;16.83;;;11.33;;
4933;SDS011;2482;49.154;8.254;2024-03-08T15:09:18;20.33;;;12.90;;
4933;SDS011;2482;49.154;8.254;2024-03-08T15:11:49;21.67;;;13.70;;
4933;SDS011;2482;49.154;8.254;2024-03-08T15:14:27;20.93;;;13.80;;
4933;SDS011;2482;49.154;8.254;2024-03-08T15:17:08;19.80;;;13.10;;
4933;SDS011;2482;49.154;8.254;2024-03-08T15:19:48;22.40;;;13.20;;
4933;SDS011;2482;49.154;8.254;2024-03-08T15:22:27;21.23;;;12.30;;
4933;SDS011;2482;49.154;8.254;2024-03-08T15:24:55;20.63;;;12.90;;
4933;SDS011;2482;49.154;8.254;2024-03-08T15:27:26;19.87;;;13.63;;
4933;SDS011;2482;49.154;8.254;2024-03-08T15:29:55;20.23;;;12.70;;
4933;SDS011;2482;49.154;8.254;2024-03-08T15:32:30;23.70;;;13.37;;
4933;SDS011;2482;49.154;8.254;2024-03-08T15:35:11;19.23;;;12.77;;
4933;SDS011;2482;49.154;8.254;2024-03-08T15:37:45;19.17;;;12.67;;
4933;SDS011;2482;49.154;8.254;2024-03-08T15:40:18;20.93;;;13.90;;
4933;SDS011;2482;49.154;8.254;2024-03-08T15:42:55;22.53;;;12.90;;
4933;SDS011;2482;49.154;8.254;2024-03-08T15:45:33;20.20;;;13.30;;
4933;SDS011;2482;49.154;8.254;2024-03-08T15:50:46;23.00;;;14.40;;
4933;SDS011;2482;49.154;8.254;2024-03-08T15:53:20;22.73;;;12.80;;
4933;SDS011;2482;49.154;8.254;2024-03-08T15:55:51;22.40;;;12.87;;
4933;SDS011;2482;49.154;8.254;2024-03-08T15:58:22;18.10;;;12.27;;
4933;SDS011;2482;49.154;8.254;2024-03-08T16:00:56;19.50;;;12.30;;
4933;SDS011;2482;49.154;8.254;2024-03-08T16:03:27;22.90;;;14.13;;
4933;SDS011;2482;49.154;8.254;2024-03-08T16:05:57;22.33;;;14.10;;
4933;SDS011;2482;49.154;8.254;2024-03-08T16:08:26;22.07;;;13.63;;
4933;SDS011;2482;49.154;8.254;2024-03-08T16:10:54;21.17;;;13.23;;
4933;SDS011;2482;49.154;8.254;2024-03-08T16:13:28;20.43;;;13.43;;
4933;SDS011;2482;49.154;8.254;2024-03-08T16:16:10;23.10;;;14.37;;
4933;SDS011;2482;49.154;8.254;2024-03-08T16:18:42;21.80;;;13.57;;
4933;SDS011;2482;49.154;8.254;2024-03-08T16:21:21;21.03;;;12.90;;
4933;SDS011;2482;49.154;8.254;2024-03-08T16:24:02;23.90;;;14.37;;
4933;SDS011;2482;49.154;8.254;2024-03-08T16:26:34;24.10;;;13.80;;